sensor_id;sensor_type;location;lat;lon;timestamp;P1;durP1;ratioP1;P2;durP2;ratioP2
19800;SDS011;10060;48.274;12.214;2023-05-13T00:02:53;7.97;;;5.90;;
19800;SDS011;10060;48.274;12.214;2023-05-13T00:05:55;7.70;;;6.50;;
19800;SDS011;10060;48.274;12.214;2023-05-13T00:08:57;7.60;;;6.60;;
19800;SDS011;10060;48.274;12.214;2023-05-13T00:11:59;8.00;;;6.43;;
19800;SDS011;10060;48.274;12.214;2023-05-13T00:15:02;9.50;;;6.40;;
19800;SDS011;10060;48.274;12.214;2023-05-13T00:18:05;8.30;;;6.20;;
19800;SDS011;10060;48.274;12.214;2023-05-13T00:21:08;10.27;;;7.50;;
19800;SDS011;10060;48.274;12.214;2023-05-13T00:24:10;10.77;;;6.77;;
19800;SDS011;10060;48.274;12.214;2023-05-13T00:27:12;8.10;;;7.10;;
19800;SDS011;10060;48.274;12.214;2023-05-13T00:30:14;10.50;;;7.60;;
19800;SDS011;10060;48.274;12.214;2023-05-13T00:33:17;9.20;;;7.23;;
19800;SDS011;10060;48.274;12.214;2023-05-13T00:36:19;9.33;;;6.90;;
19800;SDS011;10060;48.274;12.214;2023-05-13T00:39:21;8.70;;;6.70;;
19800;SDS011;10060;48.274;12.214;2023-05-13T00:42:24;8.67;;;7.20;;
19800;SDS011;10060;48.274;12.214;2023-05-13T00:45:26;9.80;;;7.63;;
19800;SDS011;10060;48.274;12.214;2023-05-13T00:48:29;9.53;;;7.37;;
19800;SDS011;10060;48.274;12.214;2023-05-13T00:51:31;11.20;;;7.63;;
19800;SDS011;10060;48.274;12.214;2023-05-13T00:54:34;10.60;;;7.80;;
19800;SDS011;10060;48.274;12.214;2023-05-13T00:57:36;11.83;;;8.43;;
19800;SDS011;10060;48.274;12.214;2023-05-13T01:00:40;12.83;;;8.17;;
19800;SDS011;10060;48.274;12.214;2023-05-13T01:03:49;10.80;;;8.37;;
19800;SDS011;10060;48.274;12.214;2023-05-13T01:06:56;12.70;;;8.47;;
19800;SDS011;10060;48.274;12.214;2023-05-13T01:10:02;13.33;;;9.73;;
19800;SDS011;10060;48.274;12.214;2023-05-13T01:13:07;14.07;;;10.20;;
19800;SDS011;10060;48.274;12.214;2023-05-13T01:16:11;15.50;;;10.77;;
19800;SDS011;10060;48.274;12.214;2023-05-13T01:19:20;16.60;;;11.23;;
19800;SDS011;10060;48.274;12.214;2023-05-13T01:22:31;17.87;;;12.20;;
19800;SDS011;10060;48.274;12.214;2023-05-13T01:25:33;18.40;;;12.70;;
19800;SDS011;10060;48.274;12.214;2023-05-13T01:28:35;16.80;;;12.63;;
19800;SDS011;10060;48.274;12.214;2023-05-13T01:31:37;18.57;;;12.90;;
19800;SDS011;10060;48.274;12.214;2023-05-13T01:34:41;18.53;;;13.20;;
19800;SDS011;10060;48.274;12.214;2023-05-13T01:37:45;20.30;;;13.37;;
19800;SDS011;10060;48.274;12.214;2023-05-13T01:40:48;21.03;;;13.47;;
19800;SDS011;10060;48.274;12.214;2023-05-13T01:43:50;17.67;;;12.87;;
19800;SDS011;10060;48.274;12.214;2023-05-13T01:46:52;23.17;;;13.70;;
19800;SDS011;10060;48.274;12.214;2023-05-13T01:49:54;17.53;;;12.37;;
19800;SDS011;10060;48.274;12.214;2023-05-13T01:52:58;16.13;;;12.17;;
19800;SDS011;10060;48.274;12.214;2023-05-13T01:56:00;19.47;;;13.90;;
19800;SDS011;10060;48.274;12.214;2023-05-13T01:59:02;20.10;;;13.93;;
19800;SDS011;10060;48.274;12.214;2023-05-13T02:02:04;22.60;;;13.90;;
19800;SDS011;10060;48.274;12.214;2023-05-13T02:05:06;20.00;;;14.40;;
19800;SDS011;10060;48.274;12.214;2023-05-13T02:08:10;16.33;;;11.80;;
19800;SDS011;10060;48.274;12.214;2023-05-13T02:11:12;18.33;;;12.53;;
19800;SDS011;10060;48.274;12.214;2023-05-13T02:14:14;15.63;;;11.77;;
19800;SDS011;10060;48.274;12.214;2023-05-13T02:17:16;15.73;;;11.27;;
19800;SDS011;10060;48.274;12.214;2023-05-13T02:20:18;14.47;;;10.73;;
19800;SDS011;10060;48.274;12.214;2023-05-13T02:23:22;14.13;;;10.87;;
19800;SDS011;10060;48.274;12.214;2023-05-13T02:26:24;17.60;;;12.20;;
19800;SDS011;10060;48.274;12.214;2023-05-13T02:29:26;17.67;;;12.27;;
19800;SDS011;10060;48.274;12.214;2023-05-13T02:32:28;19.43;;;13.57;;
19800;SDS011;10060;48.274;12.214;2023-05-13T02:35:30;17.67;;;12.90;;
19800;SDS011;10060;48.274;12.214;2023-05-13T02:38:34;19.37;;;13.70;;
19800;SDS011;10060;48.274;12.214;2023-05-13T02:41:36;23.20;;;14.23;;
19800;SDS011;10060;48.274;12.214;2023-05-13T02:44:38;19.47;;;13.30;;
19800;SDS011;10060;48.274;12.214;2023-05-13T02:47:40;17.30;;;12.50;;
19800;SDS011;10060;48.274;12.214;2023-05-13T02:50:42;17.57;;;12.30;;
19800;SDS011;10060;48.274;12.214;2023-05-13T02:53:46;15.60;;;11.03;;
19800;SDS011;10060;48.274;12.214;2023-05-13T02:56:48;16.10;;;10.10;;
19800;SDS011;10060;48.274;12.214;2023-05-13T02:59:50;16.37;;;11.43;;
19800;SDS011;10060;48.274;12.214;2023-05-13T03:02:52;16.43;;;9.83;;
19800;SDS011;10060;48.274;12.214;2023-05-13T03:05:55;14.03;;;9.50;;
19800;SDS011;10060;48.274;12.214;2023-05-13T03:08:58;13.37;;;9.90;;
19800;SDS011;10060;48.274;12.214;2023-05-13T03:12:00;15.03;;;10.40;;
19800;SDS011;10060;48.274;12.214;2023-05-13T03:15:02;14.13;;;10.13;;
19800;SDS011;10060;48.274;12.214;2023-05-13T03:18:05;14.67;;;9.93;;
19800;SDS011;10060;48.274;12.214;2023-05-13T03:21:07;16.03;;;10.10;;
19800;SDS011;10060;48.274;12.214;2023-05-13T03:24:10;19.00;;;9.97;;
19800;SDS011;10060;48.274;12.214;2023-05-13T03:27:13;15.77;;;10.03;;
19800;SDS011;10060;48.274;12.214;2023-05-13T03:30:15;14.63;;;10.27;;
19800;SDS011;10060;48.274;12.214;2023-05-13T03:33:17;16.07;;;10.17;;
19800;SDS011;10060;48.274;12.214;2023-05-13T03:36:19;13.63;;;9.67;;
19800;SDS011;10060;48.274;12.214;2023-05-13T03:39:23;14.33;;;9.60;;
19800;SDS011;10060;48.274;12.214;2023-05-13T03:42:25;14.20;;;9.43;;
19800;SDS011;10060;48.274;12.214;2023-05-13T03:45:29;14.17;;;9.47;;
19800;SDS011;10060;48.274;12.214;2023-05-13T03:48:31;12.30;;;8.77;;
19800;SDS011;10060;48.274;12.214;2023-05-13T03:51:33;11.70;;;8.03;;
19800;SDS011;10060;48.274;12.214;2023-05-13T03:54:37;13.50;;;8.20;;
19800;SDS011;10060;48.274;12.214;2023-05-13T03:57:39;13.87;;;8.97;;
19800;SDS011;10060;48.274;12.214;2023-05-13T04:00:41;11.33;;;8.07;;
19800;SDS011;10060;48.274;12.214;2023-05-13T04:03:45;11.67;;;8.20;;
19800;SDS011;10060;48.274;12.214;2023-05-13T04:06:49;11.83;;;8.73;;
19800;SDS011;10060;48.274;12.214;2023-05-13T04:09:52;11.10;;;8.63;;
19800;SDS011;10060;48.274;12.214;2023-05-13T04:12:54;13.97;;;9.07;;
19800;SDS011;10060;48.274;12.214;2023-05-13T04:15:56;11.30;;;8.90;;
19800;SDS011;10060;48.274;12.214;2023-05-13T04:18:59;12.03;;;8.37;;
19800;SDS011;10060;48.274;12.214;2023-05-13T04:22:01;9.83;;;7.97;;
19800;SDS011;10060;48.274;12.214;2023-05-13T04:25:05;11.87;;;8.33;;
19800;SDS011;10060;48.274;12.214;2023-05-13T04:28:07;11.27;;;8.53;;
19800;SDS011;10060;48.274;12.214;2023-05-13T04:31:09;10.77;;;8.33;;
19800;SDS011;10060;48.274;12.214;2023-05-13T04:34:11;12.57;;;8.77;;
19800;SDS011;10060;48.274;12.214;2023-05-13T04:37:14;12.37;;;8.83;;
19800;SDS011;10060;48.274;12.214;2023-05-13T04:40:17;11.37;;;8.93;;
19800;SDS011;10060;48.274;12.214;2023-05-13T04:43:20;12.30;;;8.57;;
19800;SDS011;10060;48.274;12.214;2023-05-13T04:46:22;10.90;;;8.33;;
19800;SDS011;10060;48.274;12.214;2023-05-13T04:49:25;11.30;;;8.77;;
19800;SDS011;10060;48.274;12.214;2023-05-13T04:52:27;12.60;;;8.30;;
19800;SDS011;10060;48.274;12.214;2023-05-13T04:55:30;12.60;;;8.83;;
19800;SDS011;10060;48.274;12.214;2023-05-13T04:58:34;12.47;;;9.17;;
19800;SDS011;10060;48.274;12.214;2023-05-13T05:01:36;11.97;;;9.07;;
19800;SDS011;10060;48.274;12.214;2023-05-13T05:04:38;12.90;;;9.30;;
19800;SDS011;10060;48.274;12.214;2023-05-13T05:07:40;14.43;;;9.50;;
19800;SDS011;10060;48.274;12.214;2023-05-13T05:10:44;14.03;;;9.83;;
19800;SDS011;10060;48.274;12.214;2023-05-13T05:13:46;14.70;;;9.70;;
19800;SDS011;10060;48.274;12.214;2023-05-13T05:16:48;13.43;;;9.63;;
19800;SDS011;10060;48.274;12.214;2023-05-13T05:19:50;14.77;;;10.00;;
19800;SDS011;10060;48.274;12.214;2023-05-13T05:22:52;12.20;;;9.03;;
19800;SDS011;10060;48.274;12.214;2023-05-13T05:25:56;14.77;;;10.47;;
19800;SDS011;10060;48.274;12.214;2023-05-13T05:28:59;13.17;;;9.33;;
19800;SDS011;10060;48.274;12.214;2023-05-13T05:32:01;13.13;;;9.67;;
19800;SDS011;10060;48.274;12.214;2023-05-13T05:35:04;11.20;;;8.33;;
19800;SDS011;10060;48.274;12.214;2023-05-13T05:38:06;11.60;;;8.43;;
19800;SDS011;10060;48.274;12.214;2023-05-13T05:41:11;14.77;;;8.90;;
19800;SDS011;10060;48.274;12.214;2023-05-13T05:44:13;11.17;;;7.67;;
19800;SDS011;10060;48.274;12.214;2023-05-13T05:47:16;11.33;;;8.30;;
19800;SDS011;10060;48.274;12.214;2023-05-13T05:50:18;10.47;;;8.20;;
19800;SDS011;10060;48.274;12.214;2023-05-13T05:53:20;10.33;;;7.90;;
19800;SDS011;10060;48.274;12.214;2023-05-13T05:56:23;8.33;;;7.10;;
19800;SDS011;10060;48.274;12.214;2023-05-13T05:59:26;9.63;;;7.40;;
19800;SDS011;10060;48.274;12.214;2023-05-13T06:02:28;8.40;;;6.50;;
19800;SDS011;10060;48.274;12.214;2023-05-13T06:05:30;10.97;;;7.13;;
19800;SDS011;10060;48.274;12.214;2023-05-13T06:08:32;7.90;;;6.40;;
19800;SDS011;10060;48.274;12.214;2023-05-13T06:11:35;9.10;;;6.40;;
19800;SDS011;10060;48.274;12.214;2023-05-13T06:14:37;7.37;;;6.13;;
19800;SDS011;10060;48.274;12.214;2023-05-13T06:17:39;8.63;;;6.80;;
19800;SDS011;10060;48.274;12.214;2023-05-13T06:20:42;7.73;;;6.50;;
19800;SDS011;10060;48.274;12.214;2023-05-13T06:23:44;8.63;;;6.73;;
19800;SDS011;10060;48.274;12.214;2023-05-13T06:26:47;8.07;;;6.20;;
19800;SDS011;10060;48.274;12.214;2023-05-13T06:29:49;8.30;;;6.73;;
19800;SDS011;10060;48.274;12.214;2023-05-13T06:32:51;8.77;;;6.33;;
19800;SDS011;10060;48.274;12.214;2023-05-13T06:35:54;10.00;;;6.67;;
19800;SDS011;10060;48.274;12.214;2023-05-13T06:38:56;8.63;;;6.50;;
19800;SDS011;10060;48.274;12.214;2023-05-13T06:42:00;9.63;;;6.23;;
19800;SDS011;10060;48.274;12.214;2023-05-13T06:45:02;8.80;;;6.93;;
19800;SDS011;10060;48.274;12.214;2023-05-13T06:48:04;9.17;;;7.10;;
19800;SDS011;10060;48.274;12.214;2023-05-13T06:51:06;9.53;;;7.00;;
19800;SDS011;10060;48.274;12.214;2023-05-13T06:54:08;9.20;;;6.83;;
19800;SDS011;10060;48.274;12.214;2023-05-13T06:57:12;7.43;;;6.30;;
19800;SDS011;10060;48.274;12.214;2023-05-13T07:00:14;8.47;;;6.70;;
19800;SDS011;10060;48.274;12.214;2023-05-13T07:03:16;9.60;;;6.47;;
19800;SDS011;10060;48.274;12.214;2023-05-13T07:06:18;7.77;;;6.43;;
19800;SDS011;10060;48.274;12.214;2023-05-13T07:09:20;10.07;;;6.53;;
19800;SDS011;10060;48.274;12.214;2023-05-13T07:12:24;11.67;;;7.20;;
19800;SDS011;10060;48.274;12.214;2023-05-13T07:15:26;9.07;;;7.00;;
19800;SDS011;10060;48.274;12.214;2023-05-13T07:18:28;9.33;;;6.87;;
19800;SDS011;10060;48.274;12.214;2023-05-13T07:21:31;11.87;;;6.77;;
19800;SDS011;10060;48.274;12.214;2023-05-13T07:24:33;8.23;;;6.70;;
19800;SDS011;10060;48.274;12.214;2023-05-13T07:27:37;9.70;;;7.23;;
19800;SDS011;10060;48.274;12.214;2023-05-13T07:30:39;9.30;;;7.50;;
19800;SDS011;10060;48.274;12.214;2023-05-13T07:33:41;8.87;;;7.17;;
19800;SDS011;10060;48.274;12.214;2023-05-13T07:36:43;9.23;;;6.83;;
19800;SDS011;10060;48.274;12.214;2023-05-13T07:39:45;13.40;;;6.17;;
19800;SDS011;10060;48.274;12.214;2023-05-13T07:42:49;7.93;;;6.23;;
19800;SDS011;10060;48.274;12.214;2023-05-13T07:45:51;10.53;;;6.40;;
19800;SDS011;10060;48.274;12.214;2023-05-13T07:48:53;7.17;;;6.07;;
19800;SDS011;10060;48.274;12.214;2023-05-13T07:51:55;10.57;;;5.50;;
19800;SDS011;10060;48.274;12.214;2023-05-13T07:54:57;8.63;;;6.20;;
19800;SDS011;10060;48.274;12.214;2023-05-13T07:58:01;7.43;;;5.53;;
19800;SDS011;10060;48.274;12.214;2023-05-13T08:01:03;7.33;;;5.50;;
19800;SDS011;10060;48.274;12.214;2023-05-13T08:04:07;7.27;;;4.97;;
19800;SDS011;10060;48.274;12.214;2023-05-13T08:07:09;6.87;;;5.33;;
19800;SDS011;10060;48.274;12.214;2023-05-13T08:10:11;5.63;;;4.80;;
19800;SDS011;10060;48.274;12.214;2023-05-13T08:13:14;7.43;;;5.33;;
19800;SDS011;10060;48.274;12.214;2023-05-13T08:16:16;6.17;;;4.80;;
19800;SDS011;10060;48.274;12.214;2023-05-13T08:19:18;4.97;;;4.13;;
19800;SDS011;10060;48.274;12.214;2023-05-13T08:22:20;5.17;;;4.17;;
19800;SDS011;10060;48.274;12.214;2023-05-13T08:25:23;5.50;;;4.40;;
19800;SDS011;10060;48.274;12.214;2023-05-13T08:28:26;5.10;;;4.27;;
19800;SDS011;10060;48.274;12.214;2023-05-13T08:31:28;5.33;;;3.80;;
19800;SDS011;10060;48.274;12.214;2023-05-13T08:34:31;4.43;;;3.90;;
19800;SDS011;10060;48.274;12.214;2023-05-13T08:37:33;3.77;;;3.40;;
19800;SDS011;10060;48.274;12.214;2023-05-13T08:40:35;5.50;;;4.03;;
19800;SDS011;10060;48.274;12.214;2023-05-13T08:43:39;3.97;;;3.67;;
19800;SDS011;10060;48.274;12.214;2023-05-13T08:46:43;4.03;;;3.63;;
19800;SDS011;10060;48.274;12.214;2023-05-13T08:49:47;5.33;;;3.40;;
19800;SDS011;10060;48.274;12.214;2023-05-13T08:52:49;4.77;;;3.30;;
19800;SDS011;10060;48.274;12.214;2023-05-13T08:55:53;4.00;;;3.60;;
19800;SDS011;10060;48.274;12.214;2023-05-13T08:58:57;4.30;;;3.67;;
19800;SDS011;10060;48.274;12.214;2023-05-13T09:01:59;3.70;;;3.40;;
19800;SDS011;10060;48.274;12.214;2023-05-13T09:05:03;4.13;;;3.73;;
19800;SDS011;10060;48.274;12.214;2023-05-13T09:08:07;4.77;;;4.27;;
19800;SDS011;10060;48.274;12.214;2023-05-13T09:11:09;4.33;;;3.80;;
19800;SDS011;10060;48.274;12.214;2023-05-13T09:14:13;4.40;;;4.00;;
19800;SDS011;10060;48.274;12.214;2023-05-13T09:17:19;4.30;;;3.90;;
19800;SDS011;10060;48.274;12.214;2023-05-13T09:20:21;4.47;;;4.07;;
19800;SDS011;10060;48.274;12.214;2023-05-13T09:23:24;4.87;;;4.37;;
19800;SDS011;10060;48.274;12.214;2023-05-13T09:26:27;4.30;;;3.90;;
19800;SDS011;10060;48.274;12.214;2023-05-13T09:29:31;6.33;;;4.20;;
19800;SDS011;10060;48.274;12.214;2023-05-13T09:32:33;4.90;;;4.30;;
19800;SDS011;10060;48.274;12.214;2023-05-13T09:35:36;6.43;;;3.97;;
19800;SDS011;10060;48.274;12.214;2023-05-13T09:38:38;5.00;;;4.40;;
19800;SDS011;10060;48.274;12.214;2023-05-13T09:41:40;5.20;;;4.70;;
19800;SDS011;10060;48.274;12.214;2023-05-13T09:44:44;4.93;;;4.43;;
19800;SDS011;10060;48.274;12.214;2023-05-13T09:47:49;4.63;;;4.23;;
19800;SDS011;10060;48.274;12.214;2023-05-13T09:50:51;6.40;;;4.80;;
19800;SDS011;10060;48.274;12.214;2023-05-13T09:53:54;6.30;;;5.10;;
19800;SDS011;10060;48.274;12.214;2023-05-13T09:56:56;5.00;;;4.50;;
19800;SDS011;10060;48.274;12.214;2023-05-13T10:00:01;5.67;;;4.63;;
19800;SDS011;10060;48.274;12.214;2023-05-13T10:03:04;6.17;;;4.33;;
19800;SDS011;10060;48.274;12.214;2023-05-13T10:06:07;6.47;;;5.00;;
19800;SDS011;10060;48.274;12.214;2023-05-13T10:09:09;5.13;;;4.37;;
19800;SDS011;10060;48.274;12.214;2023-05-13T10:12:11;5.23;;;4.17;;
19800;SDS011;10060;48.274;12.214;2023-05-13T10:15:16;4.93;;;3.97;;
19800;SDS011;10060;48.274;12.214;2023-05-13T10:18:19;4.50;;;4.00;;
19800;SDS011;10060;48.274;12.214;2023-05-13T10:21:21;4.67;;;4.13;;
19800;SDS011;10060;48.274;12.214;2023-05-13T10:24:23;5.17;;;4.67;;
19800;SDS011;10060;48.274;12.214;2023-05-13T10:27:29;5.23;;;4.50;;
19800;SDS011;10060;48.274;12.214;2023-05-13T10:30:33;4.47;;;4.07;;
19800;SDS011;10060;48.274;12.214;2023-05-13T10:33:35;4.33;;;3.93;;
19800;SDS011;10060;48.274;12.214;2023-05-13T10:36:44;4.23;;;3.83;;
19800;SDS011;10060;48.274;12.214;2023-05-13T10:40:00;4.07;;;3.67;;
19800;SDS011;10060;48.274;12.214;2023-05-13T10:43:09;4.07;;;3.70;;
19800;SDS011;10060;48.274;12.214;2023-05-13T10:46:14;3.80;;;3.50;;
19800;SDS011;10060;48.274;12.214;2023-05-13T10:49:19;4.80;;;3.97;;
19800;SDS011;10060;48.274;12.214;2023-05-13T10:52:24;5.13;;;3.77;;
19800;SDS011;10060;48.274;12.214;2023-05-13T10:55:42;4.03;;;3.63;;
19800;SDS011;10060;48.274;12.214;2023-05-13T10:58:55;3.70;;;3.40;;
19800;SDS011;10060;48.274;12.214;2023-05-13T11:02:01;3.57;;;3.27;;
19800;SDS011;10060;48.274;12.214;2023-05-13T11:05:03;3.60;;;3.30;;
19800;SDS011;10060;48.274;12.214;2023-05-13T11:08:06;3.80;;;3.50;;
19800;SDS011;10060;48.274;12.214;2023-05-13T11:11:21;4.70;;;4.30;;
19800;SDS011;10060;48.274;12.214;2023-05-13T11:14:23;4.00;;;3.60;;
19800;SDS011;10060;48.274;12.214;2023-05-13T11:17:28;5.63;;;3.80;;
19800;SDS011;10060;48.274;12.214;2023-05-13T11:20:35;4.10;;;3.80;;
19800;SDS011;10060;48.274;12.214;2023-05-13T11:23:50;4.33;;;3.93;;
19800;SDS011;10060;48.274;12.214;2023-05-13T11:26:53;4.40;;;4.00;;
19800;SDS011;10060;48.274;12.214;2023-05-13T11:29:56;4.43;;;4.03;;
19800;SDS011;10060;48.274;12.214;2023-05-13T11:32:59;4.27;;;3.87;;
19800;SDS011;10060;48.274;12.214;2023-05-13T11:36:07;5.57;;;4.60;;
19800;SDS011;10060;48.274;12.214;2023-05-13T11:39:10;3.50;;;3.20;;
19800;SDS011;10060;48.274;12.214;2023-05-13T11:42:13;3.40;;;3.10;;
19800;SDS011;10060;48.274;12.214;2023-05-13T11:45:15;3.33;;;3.03;;
19800;SDS011;10060;48.274;12.214;2023-05-13T11:48:19;3.13;;;2.80;;
19800;SDS011;10060;48.274;12.214;2023-05-13T11:51:22;2.80;;;2.60;;
19800;SDS011;10060;48.274;12.214;2023-05-13T11:54:24;3.05;;;2.83;;
19800;SDS011;10060;48.274;12.214;2023-05-13T11:57:27;2.58;;;2.38;;
19800;SDS011;10060;48.274;12.214;2023-05-13T12:00:32;3.50;;;3.20;;
19800;SDS011;10060;48.274;12.214;2023-05-13T12:03:35;6.00;;;3.20;;
19800;SDS011;10060;48.274;12.214;2023-05-13T12:06:42;2.53;;;2.33;;
19800;SDS011;10060;48.274;12.214;2023-05-13T12:09:44;3.17;;;2.65;;
19800;SDS011;10060;48.274;12.214;2023-05-13T12:12:47;3.13;;;2.90;;
19800;SDS011;10060;48.274;12.214;2023-05-13T12:15:49;3.70;;;3.40;;
19800;SDS011;10060;48.274;12.214;2023-05-13T12:18:59;3.70;;;3.33;;
19800;SDS011;10060;48.274;12.214;2023-05-13T12:22:01;3.05;;;2.80;;
19800;SDS011;10060;48.274;12.214;2023-05-13T12:28:25;3.10;;;2.90;;
19800;SDS011;10060;48.274;12.214;2023-05-13T12:31:27;3.85;;;3.08;;
19800;SDS011;10060;48.274;12.214;2023-05-13T12:34:32;3.72;;;3.30;;
19800;SDS011;10060;48.274;12.214;2023-05-13T12:37:34;3.40;;;3.13;;
19800;SDS011;10060;48.274;12.214;2023-05-13T12:40:36;3.30;;;3.03;;
19800;SDS011;10060;48.274;12.214;2023-05-13T12:43:39;3.08;;;2.78;;
19800;SDS011;10060;48.274;12.214;2023-05-13T12:46:48;4.70;;;3.30;;
19800;SDS011;10060;48.274;12.214;2023-05-13T12:49:52;4.18;;;2.78;;
19800;SDS011;10060;48.274;12.214;2023-05-13T12:52:54;5.10;;;2.88;;
19800;SDS011;10060;48.274;12.214;2023-05-13T12:55:58;3.33;;;3.03;;
19800;SDS011;10060;48.274;12.214;2023-05-13T12:59:01;8.27;;;3.28;;
19800;SDS011;10060;48.274;12.214;2023-05-13T13:02:03;3.10;;;2.90;;
19800;SDS011;10060;48.274;12.214;2023-05-13T13:05:07;2.75;;;2.55;;
19800;SDS011;10060;48.274;12.214;2023-05-13T13:08:09;3.35;;;3.00;;
19800;SDS011;10060;48.274;12.214;2023-05-13T13:11:11;2.63;;;2.42;;
19800;SDS011;10060;48.274;12.214;2023-05-13T13:14:17;4.03;;;2.65;;
19800;SDS011;10060;48.274;12.214;2023-05-13T13:17:19;3.35;;;3.05;;
19800;SDS011;10060;48.274;12.214;2023-05-13T13:20:23;3.17;;;2.88;;
19800;SDS011;10060;48.274;12.214;2023-05-13T13:23:25;3.50;;;3.20;;
19800;SDS011;10060;48.274;12.214;2023-05-13T13:26:27;8.15;;;2.97;;
19800;SDS011;10060;48.274;12.214;2023-05-13T13:29:29;2.58;;;2.38;;
19800;SDS011;10060;48.274;12.214;2023-05-13T13:32:31;3.13;;;2.47;;
19800;SDS011;10060;48.274;12.214;2023-05-13T13:35:35;3.28;;;3.03;;
19800;SDS011;10060;48.274;12.214;2023-05-13T13:38:37;3.08;;;2.55;;
19800;SDS011;10060;48.274;12.214;2023-05-13T13:41:40;3.10;;;2.80;;
19800;SDS011;10060;48.274;12.214;2023-05-13T13:44:42;4.00;;;3.10;;
19800;SDS011;10060;48.274;12.214;2023-05-13T13:47:44;6.90;;;3.47;;
19800;SDS011;10060;48.274;12.214;2023-05-13T13:50:47;2.97;;;2.78;;
19800;SDS011;10060;48.274;12.214;2023-05-13T13:53:49;3.00;;;2.70;;
19800;SDS011;10060;48.274;12.214;2023-05-13T13:56:52;6.65;;;3.00;;
19800;SDS011;10060;48.274;12.214;2023-05-13T13:59:54;3.13;;;2.83;;
19800;SDS011;10060;48.274;12.214;2023-05-13T14:02:56;3.28;;;2.60;;
19800;SDS011;10060;48.274;12.214;2023-05-13T14:06:00;3.17;;;2.83;;
19800;SDS011;10060;48.274;12.214;2023-05-13T14:09:02;3.45;;;2.42;;
19800;SDS011;10060;48.274;12.214;2023-05-13T14:12:04;10.20;;;3.05;;
19800;SDS011;10060;48.274;12.214;2023-05-13T14:15:07;2.60;;;2.40;;
19800;SDS011;10060;48.274;12.214;2023-05-13T14:18:09;3.65;;;2.75;;
19800;SDS011;10060;48.274;12.214;2023-05-13T14:21:13;2.80;;;2.60;;
19800;SDS011;10060;48.274;12.214;2023-05-13T14:24:15;2.90;;;2.70;;
19800;SDS011;10060;48.274;12.214;2023-05-13T14:27:17;4.63;;;2.70;;
19800;SDS011;10060;48.274;12.214;2023-05-13T14:30:19;2.28;;;2.08;;
19800;SDS011;10060;48.274;12.214;2023-05-13T14:33:21;2.00;;;1.90;;
19800;SDS011;10060;48.274;12.214;2023-05-13T14:36:25;2.28;;;2.08;;
19800;SDS011;10060;48.274;12.214;2023-05-13T14:39:27;11.18;;;2.75;;
19800;SDS011;10060;48.274;12.214;2023-05-13T14:42:30;2.20;;;2.00;;
19800;SDS011;10060;48.274;12.214;2023-05-13T14:45:32;2.33;;;2.13;;
19800;SDS011;10060;48.274;12.214;2023-05-13T14:48:35;2.42;;;2.22;;
19800;SDS011;10060;48.274;12.214;2023-05-13T14:51:39;2.22;;;2.10;;
19800;SDS011;10060;48.274;12.214;2023-05-13T14:54:41;5.75;;;2.35;;
19800;SDS011;10060;48.274;12.214;2023-05-13T14:57:43;1.95;;;1.75;;
19800;SDS011;10060;48.274;12.214;2023-05-13T15:00:47;3.70;;;2.65;;
19800;SDS011;10060;48.274;12.214;2023-05-13T15:03:49;3.58;;;1.80;;
19800;SDS011;10060;48.274;12.214;2023-05-13T15:06:52;2.60;;;2.20;;
19800;SDS011;10060;48.274;12.214;2023-05-13T15:09:55;2.20;;;1.83;;
19800;SDS011;10060;48.274;12.214;2023-05-13T15:12:57;2.28;;;2.08;;
19800;SDS011;10060;48.274;12.214;2023-05-13T15:15:59;4.70;;;1.90;;
19800;SDS011;10060;48.274;12.214;2023-05-13T15:19:02;1.98;;;1.88;;
19800;SDS011;10060;48.274;12.214;2023-05-13T15:22:06;2.65;;;2.45;;
19800;SDS011;10060;48.274;12.214;2023-05-13T15:25:08;2.30;;;2.05;;
19800;SDS011;10060;48.274;12.214;2023-05-13T15:28:10;3.58;;;2.00;;
19800;SDS011;10060;48.274;12.214;2023-05-13T15:31:12;2.13;;;2.03;;
19800;SDS011;10060;48.274;12.214;2023-05-13T15:34:14;2.22;;;2.00;;
19800;SDS011;10060;48.274;12.214;2023-05-13T15:37:18;2.30;;;2.13;;
19800;SDS011;10060;48.274;12.214;2023-05-13T15:40:20;2.08;;;1.98;;
19800;SDS011;10060;48.274;12.214;2023-05-13T15:43:22;2.55;;;2.25;;
19800;SDS011;10060;48.274;12.214;2023-05-13T15:46:24;4.00;;;2.22;;
19800;SDS011;10060;48.274;12.214;2023-05-13T15:49:26;2.50;;;2.30;;
19800;SDS011;10060;48.274;12.214;2023-05-13T15:52:31;2.47;;;2.25;;
19800;SDS011;10060;48.274;12.214;2023-05-13T15:55:33;2.13;;;1.92;;
19800;SDS011;10060;48.274;12.214;2023-05-13T15:58:36;2.95;;;2.17;;
19800;SDS011;10060;48.274;12.214;2023-05-13T16:01:38;14.38;;;3.15;;
19800;SDS011;10060;48.274;12.214;2023-05-13T16:04:41;1.98;;;1.77;;
19800;SDS011;10060;48.274;12.214;2023-05-13T16:07:44;1.75;;;1.65;;
19800;SDS011;10060;48.274;12.214;2023-05-13T16:10:46;1.88;;;1.77;;
19800;SDS011;10060;48.274;12.214;2023-05-13T16:13:48;1.90;;;1.80;;
19800;SDS011;10060;48.274;12.214;2023-05-13T16:16:51;1.75;;;1.60;;
19800;SDS011;10060;48.274;12.214;2023-05-13T16:19:54;1.80;;;1.70;;
19800;SDS011;10060;48.274;12.214;2023-05-13T16:22:58;2.13;;;2.00;;
19800;SDS011;10060;48.274;12.214;2023-05-13T16:26:00;3.50;;;1.80;;
19800;SDS011;10060;48.274;12.214;2023-05-13T16:29:02;2.10;;;1.90;;
19800;SDS011;10060;48.274;12.214;2023-05-13T16:32:05;1.90;;;1.80;;
19800;SDS011;10060;48.274;12.214;2023-05-13T16:35:08;2.22;;;2.03;;
19800;SDS011;10060;48.274;12.214;2023-05-13T16:38:12;8.88;;;4.80;;
19800;SDS011;10060;48.274;12.214;2023-05-13T16:41:15;8.90;;;5.05;;
19800;SDS011;10060;48.274;12.214;2023-05-13T16:44:17;11.45;;;6.13;;
19800;SDS011;10060;48.274;12.214;2023-05-13T16:47:19;2.97;;;2.50;;
19800;SDS011;10060;48.274;12.214;2023-05-13T16:50:21;3.28;;;2.00;;
19800;SDS011;10060;48.274;12.214;2023-05-13T16:53:25;2.70;;;1.88;;
19800;SDS011;10060;48.274;12.214;2023-05-13T16:56:27;1.98;;;1.70;;
19800;SDS011;10060;48.274;12.214;2023-05-13T16:59:30;2.00;;;1.90;;
19800;SDS011;10060;48.274;12.214;2023-05-13T17:02:32;1.80;;;1.70;;
19800;SDS011;10060;48.274;12.214;2023-05-13T17:05:34;1.80;;;1.70;;
19800;SDS011;10060;48.274;12.214;2023-05-13T17:08:38;1.65;;;1.55;;
19800;SDS011;10060;48.274;12.214;2023-05-13T17:11:40;2.10;;;1.92;;
19800;SDS011;10060;48.274;12.214;2023-05-13T17:14:42;2.60;;;1.80;;
19800;SDS011;10060;48.274;12.214;2023-05-13T17:17:44;1.80;;;1.70;;
19800;SDS011;10060;48.274;12.214;2023-05-13T17:20:46;2.05;;;1.85;;
19800;SDS011;10060;48.274;12.214;2023-05-13T17:23:50;2.78;;;2.40;;
19800;SDS011;10060;48.274;12.214;2023-05-13T17:26:52;13.30;;;3.85;;
19800;SDS011;10060;48.274;12.214;2023-05-13T17:29:54;17.10;;;3.35;;
19800;SDS011;10060;48.274;12.214;2023-05-13T17:32:56;13.32;;;3.70;;
19800;SDS011;10060;48.274;12.214;2023-05-13T17:35:58;15.45;;;3.70;;
19800;SDS011;10060;48.274;12.214;2023-05-13T17:39:02;15.57;;;3.37;;
19800;SDS011;10060;48.274;12.214;2023-05-13T17:42:04;11.17;;;3.20;;
19800;SDS011;10060;48.274;12.214;2023-05-13T17:45:07;7.60;;;2.90;;
19800;SDS011;10060;48.274;12.214;2023-05-13T17:48:09;6.83;;;3.00;;
19800;SDS011;10060;48.274;12.214;2023-05-13T17:51:11;6.37;;;3.10;;
19800;SDS011;10060;48.274;12.214;2023-05-13T17:54:15;6.13;;;3.10;;
19800;SDS011;10060;48.274;12.214;2023-05-13T17:57:17;6.10;;;3.73;;
19800;SDS011;10060;48.274;12.214;2023-05-13T18:00:20;5.57;;;3.47;;
19800;SDS011;10060;48.274;12.214;2023-05-13T18:03:22;4.63;;;3.80;;